sensor_id;sensor_type;location;lat;lon;timestamp;temperature;humidity
74368;DHT22;64991;41.090;-8.118;2022-12-18T00:05:01;18.70;83.90
74368;DHT22;64991;41.090;-8.118;2022-12-18T00:10:05;18.60;84.20
74368;DHT22;64991;41.090;-8.118;2022-12-18T00:15:10;18.70;84.30
74368;DHT22;64991;41.090;-8.118;2022-12-18T00:20:14;18.70;83.40
74368;DHT22;64991;41.090;-8.118;2022-12-18T00:25:22;18.70;83.20
74368;DHT22;64991;41.090;-8.118;2022-12-18T00:30:27;18.60;83.30
74368;DHT22;64991;41.090;-8.118;2022-12-18T00:35:31;18.90;84.20
74368;DHT22;64991;41.090;-8.118;2022-12-18T00:40:34;18.90;84.20
74368;DHT22;64991;41.090;-8.118;2022-12-18T00:45:39;18.90;83.80
74368;DHT22;64991;41.090;-8.118;2022-12-18T00:50:43;18.80;84.40
74368;DHT22;64991;41.090;-8.118;2022-12-18T00:55:46;18.90;84.10
74368;DHT22;64991;41.090;-8.118;2022-12-18T01:00:51;18.80;83.30
74368;DHT22;64991;41.090;-8.118;2022-12-18T01:05:55;18.90;83.50
74368;DHT22;64991;41.090;-8.118;2022-12-18T01:10:59;18.80;83.60
74368;DHT22;64991;41.090;-8.118;2022-12-18T01:16:04;18.90;83.40
74368;DHT22;64991;41.090;-8.118;2022-12-18T01:21:09;18.80;83.40
74368;DHT22;64991;41.090;-8.118;2022-12-18T01:26:15;18.90;83.50
74368;DHT22;64991;41.090;-8.118;2022-12-18T01:31:21;18.80;83.70
74368;DHT22;64991;41.090;-8.118;2022-12-18T01:36:27;18.90;83.50
74368;DHT22;64991;41.090;-8.118;2022-12-18T01:41:32;18.90;83.90
74368;DHT22;64991;41.090;-8.118;2022-12-18T01:46:51;18.90;84.00
74368;DHT22;64991;41.090;-8.118;2022-12-18T01:51:55;18.90;83.90
74368;DHT22;64991;41.090;-8.118;2022-12-18T01:56:58;19.00;83.60
74368;DHT22;64991;41.090;-8.118;2022-12-18T02:02:04;18.90;84.00
74368;DHT22;64991;41.090;-8.118;2022-12-18T02:07:10;19.00;83.50
74368;DHT22;64991;41.090;-8.118;2022-12-18T02:12:19;19.00;83.60
74368;DHT22;64991;41.090;-8.118;2022-12-18T02:17:27;19.00;83.60
74368;DHT22;64991;41.090;-8.118;2022-12-18T02:22:37;19.00;83.80
74368;DHT22;64991;41.090;-8.118;2022-12-18T02:27:44;19.00;83.60
74368;DHT22;64991;41.090;-8.118;2022-12-18T02:32:49;19.00;83.70
74368;DHT22;64991;41.090;-8.118;2022-12-18T02:37:54;19.10;83.60
74368;DHT22;64991;41.090;-8.118;2022-12-18T02:43:06;19.00;84.10
74368;DHT22;64991;41.090;-8.118;2022-12-18T02:48:10;19.00;83.70
74368;DHT22;64991;41.090;-8.118;2022-12-18T02:53:14;19.10;83.80
74368;DHT22;64991;41.090;-8.118;2022-12-18T02:58:24;19.10;84.20
74368;DHT22;64991;41.090;-8.118;2022-12-18T03:03:31;19.10;84.20
74368;DHT22;64991;41.090;-8.118;2022-12-18T03:08:41;19.00;84.40
74368;DHT22;64991;41.090;-8.118;2022-12-18T03:13:48;19.20;84.50
74368;DHT22;64991;41.090;-8.118;2022-12-18T03:18:54;19.10;84.20
74368;DHT22;64991;41.090;-8.118;2022-12-18T03:23:59;19.20;84.40
74368;DHT22;64991;41.090;-8.118;2022-12-18T03:29:06;19.10;84.50
74368;DHT22;64991;41.090;-8.118;2022-12-18T03:34:12;19.20;84.40
74368;DHT22;64991;41.090;-8.118;2022-12-18T03:39:19;19.20;84.40
74368;DHT22;64991;41.090;-8.118;2022-12-18T03:44:26;19.20;84.60
74368;DHT22;64991;41.090;-8.118;2022-12-18T03:49:34;19.20;84.80
74368;DHT22;64991;41.090;-8.118;2022-12-18T03:54:39;19.20;84.50
74368;DHT22;64991;41.090;-8.118;2022-12-18T03:59:46;19.20;84.90
74368;DHT22;64991;41.090;-8.118;2022-12-18T04:04:51;19.20;84.50
74368;DHT22;64991;41.090;-8.118;2022-12-18T04:09:56;19.30;84.50
74368;DHT22;64991;41.090;-8.118;2022-12-18T04:15:02;19.20;84.60
74368;DHT22;64991;41.090;-8.118;2022-12-18T04:20:07;19.30;84.80
74368;DHT22;64991;41.090;-8.118;2022-12-18T04:25:11;19.20;84.20
74368;DHT22;64991;41.090;-8.118;2022-12-18T04:30:16;19.30;85.00
74368;DHT22;64991;41.090;-8.118;2022-12-18T04:35:20;19.30;84.90
74368;DHT22;64991;41.090;-8.118;2022-12-18T04:40:23;19.30;84.60
74368;DHT22;64991;41.090;-8.118;2022-12-18T04:45:28;19.40;84.80
74368;DHT22;64991;41.090;-8.118;2022-12-18T04:50:32;19.30;84.90
74368;DHT22;64991;41.090;-8.118;2022-12-18T04:55:36;19.30;84.70
74368;DHT22;64991;41.090;-8.118;2022-12-18T05:00:41;19.40;85.00
74368;DHT22;64991;41.090;-8.118;2022-12-18T05:05:44;19.30;85.00
74368;DHT22;64991;41.090;-8.118;2022-12-18T05:10:48;19.40;84.50
74368;DHT22;64991;41.090;-8.118;2022-12-18T05:15:53;19.40;84.70
74368;DHT22;64991;41.090;-8.118;2022-12-18T05:20:57;19.30;84.90
74368;DHT22;64991;41.090;-8.118;2022-12-18T05:26:01;19.30;85.30
74368;DHT22;64991;41.090;-8.118;2022-12-18T05:31:07;19.40;84.60
74368;DHT22;64991;41.090;-8.118;2022-12-18T05:36:11;19.30;84.80
74368;DHT22;64991;41.090;-8.118;2022-12-18T05:41:15;19.40;84.90
74368;DHT22;64991;41.090;-8.118;2022-12-18T05:46:20;19.40;84.80
74368;DHT22;64991;41.090;-8.118;2022-12-18T05:51:23;19.40;85.00
74368;DHT22;64991;41.090;-8.118;2022-12-18T05:56:27;19.30;84.60
74368;DHT22;64991;41.090;-8.118;2022-12-18T06:01:32;19.40;84.60
74368;DHT22;64991;41.090;-8.118;2022-12-18T06:06:35;19.30;84.70
74368;DHT22;64991;41.090;-8.118;2022-12-18T06:11:39;19.40;84.90
74368;DHT22;64991;41.090;-8.118;2022-12-18T06:16:44;19.30;84.50
74368;DHT22;64991;41.090;-8.118;2022-12-18T06:21:47;19.30;84.60
74368;DHT22;64991;41.090;-8.118;2022-12-18T06:26:52;19.40;85.00
74368;DHT22;64991;41.090;-8.118;2022-12-18T06:31:57;19.40;84.40
74368;DHT22;64991;41.090;-8.118;2022-12-18T06:37:00;19.40;84.70
74368;DHT22;64991;41.090;-8.118;2022-12-18T06:42:04;19.30;84.70
74368;DHT22;64991;41.090;-8.118;2022-12-18T06:47:09;19.40;84.70
74368;DHT22;64991;41.090;-8.118;2022-12-18T06:52:13;19.40;84.80
74368;DHT22;64991;41.090;-8.118;2022-12-18T06:57:16;19.30;85.00
74368;DHT22;64991;41.090;-8.118;2022-12-18T07:02:21;19.40;84.90
74368;DHT22;64991;41.090;-8.118;2022-12-18T07:07:25;19.40;84.70
74368;DHT22;64991;41.090;-8.118;2022-12-18T07:12:28;19.30;84.50
74368;DHT22;64991;41.090;-8.118;2022-12-18T07:17:33;19.40;84.70
74368;DHT22;64991;41.090;-8.118;2022-12-18T07:22:37;19.30;84.40
74368;DHT22;64991;41.090;-8.118;2022-12-18T07:27:40;19.30;84.80
74368;DHT22;64991;41.090;-8.118;2022-12-18T07:32:45;19.40;84.40
74368;DHT22;64991;41.090;-8.118;2022-12-18T07:37:49;19.30;84.50
74368;DHT22;64991;41.090;-8.118;2022-12-18T07:42:52;19.30;84.00
74368;DHT22;64991;41.090;-8.118;2022-12-18T07:47:57;19.30;83.90
74368;DHT22;64991;41.090;-8.118;2022-12-18T07:53:01;19.30;83.20
74368;DHT22;64991;41.090;-8.118;2022-12-18T07:58:05;19.30;83.70
74368;DHT22;64991;41.090;-8.118;2022-12-18T08:03:10;19.30;84.00
74368;DHT22;64991;41.090;-8.118;2022-12-18T08:08:13;19.30;83.60
74368;DHT22;64991;41.090;-8.118;2022-12-18T08:13:17;19.30;83.30
74368;DHT22;64991;41.090;-8.118;2022-12-18T08:18:22;19.40;83.70
74368;DHT22;64991;41.090;-8.118;2022-12-18T08:23:25;19.40;83.60
74368;DHT22;64991;41.090;-8.118;2022-12-18T08:28:29;19.50;83.80
74368;DHT22;64991;41.090;-8.118;2022-12-18T08:33:34;19.50;83.80
74368;DHT22;64991;41.090;-8.118;2022-12-18T08:38:39;19.40;84.00
74368;DHT22;64991;41.090;-8.118;2022-12-18T08:43:43;19.50;83.60
74368;DHT22;64991;41.090;-8.118;2022-12-18T08:49:05;19.40;83.90
74368;DHT22;64991;41.090;-8.118;2022-12-18T08:54:10;19.50;83.50
74368;DHT22;64991;41.090;-8.118;2022-12-18T08:59:14;19.60;83.90
74368;DHT22;64991;41.090;-8.118;2022-12-18T09:04:24;19.50;84.10
74368;DHT22;64991;41.090;-8.118;2022-12-18T09:09:27;19.40;83.90
74368;DHT22;64991;41.090;-8.118;2022-12-18T09:14:31;19.40;82.60
74368;DHT22;64991;41.090;-8.118;2022-12-18T09:19:36;19.50;82.20
74368;DHT22;64991;41.090;-8.118;2022-12-18T09:24:39;19.70;83.00
74368;DHT22;64991;41.090;-8.118;2022-12-18T09:29:43;19.80;82.70
74368;DHT22;64991;41.090;-8.118;2022-12-18T09:34:48;19.90;82.40
74368;DHT22;64991;41.090;-8.118;2022-12-18T09:39:52;20.00;82.00
74368;DHT22;64991;41.090;-8.118;2022-12-18T09:44:55;20.10;81.90
74368;DHT22;64991;41.090;-8.118;2022-12-18T09:50:01;20.20;81.00
74368;DHT22;64991;41.090;-8.118;2022-12-18T09:55:09;19.90;80.90
74368;DHT22;64991;41.090;-8.118;2022-12-18T10:00:16;20.20;81.10
74368;DHT22;64991;41.090;-8.118;2022-12-18T10:05:27;20.40;80.40
74368;DHT22;64991;41.090;-8.118;2022-12-18T10:10:36;20.40;80.00
74368;DHT22;64991;41.090;-8.118;2022-12-18T10:15:45;20.60;79.80
74368;DHT22;64991;41.090;-8.118;2022-12-18T10:20:58;20.80;79.50
74368;DHT22;64991;41.090;-8.118;2022-12-18T10:26:07;20.70;79.70
74368;DHT22;64991;41.090;-8.118;2022-12-18T10:31:14;20.70;79.50
74368;DHT22;64991;41.090;-8.118;2022-12-18T10:36:22;20.80;79.60
74368;DHT22;64991;41.090;-8.118;2022-12-18T10:41:26;20.90;77.90
74368;DHT22;64991;41.090;-8.118;2022-12-18T10:46:33;20.90;78.90
74368;DHT22;64991;41.090;-8.118;2022-12-18T10:51:40;20.80;79.40
74368;DHT22;64991;41.090;-8.118;2022-12-18T10:56:44;20.80;79.50
74368;DHT22;64991;41.090;-8.118;2022-12-18T11:01:49;20.80;78.90
74368;DHT22;64991;41.090;-8.118;2022-12-18T11:06:56;20.80;79.40
74368;DHT22;64991;41.090;-8.118;2022-12-18T11:12:01;20.90;77.90
74368;DHT22;64991;41.090;-8.118;2022-12-18T11:17:16;20.80;78.90
74368;DHT22;64991;41.090;-8.118;2022-12-18T11:22:28;20.80;79.20
74368;DHT22;64991;41.090;-8.118;2022-12-18T11:27:33;20.80;78.30
74368;DHT22;64991;41.090;-8.118;2022-12-18T11:32:37;20.90;78.30
74368;DHT22;64991;41.090;-8.118;2022-12-18T11:37:43;21.00;77.70
74368;DHT22;64991;41.090;-8.118;2022-12-18T11:42:50;21.00;78.00
74368;DHT22;64991;41.090;-8.118;2022-12-18T11:47:57;21.00;78.00
74368;DHT22;64991;41.090;-8.118;2022-12-18T11:53:07;21.00;78.00
74368;DHT22;64991;41.090;-8.118;2022-12-18T11:58:15;21.10;77.70
74368;DHT22;64991;41.090;-8.118;2022-12-18T12:03:48;21.10;77.60
74368;DHT22;64991;41.090;-8.118;2022-12-18T12:09:03;21.20;77.50
74368;DHT22;64991;41.090;-8.118;2022-12-18T12:14:18;21.30;76.90
74368;DHT22;64991;41.090;-8.118;2022-12-18T12:19:33;21.30;76.70
74368;DHT22;64991;41.090;-8.118;2022-12-18T12:24:48;21.40;77.00
74368;DHT22;64991;41.090;-8.118;2022-12-18T12:29:58;21.70;76.40
74368;DHT22;64991;41.090;-8.118;2022-12-18T12:35:12;21.50;76.50
74368;DHT22;64991;41.090;-8.118;2022-12-18T12:40:27;21.70;76.30
74368;DHT22;64991;41.090;-8.118;2022-12-18T12:45:54;21.50;71.30
74368;DHT22;64991;41.090;-8.118;2022-12-18T12:51:00;21.60;69.30
74368;DHT22;64991;41.090;-8.118;2022-12-18T12:56:05;21.00;67.00
74368;DHT22;64991;41.090;-8.118;2022-12-18T13:01:14;22.90;66.60
74368;DHT22;64991;41.090;-8.118;2022-12-18T13:06:28;24.00;63.20
74368;DHT22;64991;41.090;-8.118;2022-12-18T13:11:46;24.80;63.40
74368;DHT22;64991;41.090;-8.118;2022-12-18T13:17:17;21.80;65.00
74368;DHT22;64991;41.090;-8.118;2022-12-18T13:22:31;23.10;68.40
74368;DHT22;64991;41.090;-8.118;2022-12-18T13:27:56;21.70;72.50
74368;DHT22;64991;41.090;-8.118;2022-12-18T13:39:09;23.40;64.00
74368;DHT22;64991;41.090;-8.118;2022-12-18T13:44:37;24.10;65.00
74368;DHT22;64991;41.090;-8.118;2022-12-18T13:49:43;23.70;66.40
74368;DHT22;64991;41.090;-8.118;2022-12-18T13:54:50;25.90;63.20
74368;DHT22;64991;41.090;-8.118;2022-12-18T13:59:57;26.20;62.30
74368;DHT22;64991;41.090;-8.118;2022-12-18T14:05:01;24.60;65.60
74368;DHT22;64991;41.090;-8.118;2022-12-18T14:10:11;23.50;69.70
74368;DHT22;64991;41.090;-8.118;2022-12-18T14:15:39;22.50;69.70
74368;DHT22;64991;41.090;-8.118;2022-12-18T14:20:44;22.10;74.10
74368;DHT22;64991;41.090;-8.118;2022-12-18T14:25:53;21.60;75.10
74368;DHT22;64991;41.090;-8.118;2022-12-18T14:31:04;21.50;69.00
74368;DHT22;64991;41.090;-8.118;2022-12-18T14:36:13;21.30;75.60
74368;DHT22;64991;41.090;-8.118;2022-12-18T14:41:19;21.30;75.70
74368;DHT22;64991;41.090;-8.118;2022-12-18T14:46:33;21.40;76.10
74368;DHT22;64991;41.090;-8.118;2022-12-18T14:51:38;21.30;76.30
74368;DHT22;64991;41.090;-8.118;2022-12-18T14:56:43;21.30;76.50
74368;DHT22;64991;41.090;-8.118;2022-12-18T15:01:50;21.30;74.50
74368;DHT22;64991;41.090;-8.118;2022-12-18T15:07:06;20.90;76.50
74368;DHT22;64991;41.090;-8.118;2022-12-18T15:12:22;21.10;78.00
74368;DHT22;64991;41.090;-8.118;2022-12-18T15:17:30;21.10;77.90
74368;DHT22;64991;41.090;-8.118;2022-12-18T15:22:34;21.00;78.70
74368;DHT22;64991;41.090;-8.118;2022-12-18T15:27:38;21.00;79.00
74368;DHT22;64991;41.090;-8.118;2022-12-18T15:32:49;21.10;79.00
74368;DHT22;64991;41.090;-8.118;2022-12-18T15:37:53;21.00;79.00
74368;DHT22;64991;41.090;-8.118;2022-12-18T15:42:56;21.00;78.90
74368;DHT22;64991;41.090;-8.118;2022-12-18T15:48:20;20.90;79.60
74368;DHT22;64991;41.090;-8.118;2022-12-18T15:53:25;20.90;79.60
74368;DHT22;64991;41.090;-8.118;2022-12-18T15:58:31;20.80;79.70
74368;DHT22;64991;41.090;-8.118;2022-12-18T16:03:37;20.80;79.60
74368;DHT22;64991;41.090;-8.118;2022-12-18T16:08:41;20.70;79.70
74368;DHT22;64991;41.090;-8.118;2022-12-18T16:13:45;20.70;79.80
74368;DHT22;64991;41.090;-8.118;2022-12-18T16:18:50;20.70;79.60
74368;DHT22;64991;41.090;-8.118;2022-12-18T16:23:53;20.60;79.70
74368;DHT22;64991;41.090;-8.118;2022-12-18T16:28:57;20.60;79.90
74368;DHT22;64991;41.090;-8.118;2022-12-18T16:34:11;20.60;79.80
74368;DHT22;64991;41.090;-8.118;2022-12-18T16:39:16;20.50;79.90
74368;DHT22;64991;41.090;-8.118;2022-12-18T16:44:19;20.50;79.90
74368;DHT22;64991;41.090;-8.118;2022-12-18T16:49:24;20.40;79.90
74368;DHT22;64991;41.090;-8.118;2022-12-18T16:54:28;20.40;79.80
74368;DHT22;64991;41.090;-8.118;2022-12-18T16:59:32;20.50;80.00
74368;DHT22;64991;41.090;-8.118;2022-12-18T17:04:38;20.40;79.60
74368;DHT22;64991;41.090;-8.118;2022-12-18T17:09:41;20.30;79.10
74368;DHT22;64991;41.090;-8.118;2022-12-18T17:14:45;20.30;79.50
74368;DHT22;64991;41.090;-8.118;2022-12-18T17:19:50;20.20;79.80
74368;DHT22;64991;41.090;-8.118;2022-12-18T17:24:54;20.20;79.60
74368;DHT22;64991;41.090;-8.118;2022-12-18T17:29:58;20.30;80.00
74368;DHT22;64991;41.090;-8.118;2022-12-18T17:35:03;20.30;79.60
74368;DHT22;64991;41.090;-8.118;2022-12-18T17:40:08;20.20;79.60
74368;DHT22;64991;41.090;-8.118;2022-12-18T17:45:12;20.20;79.70
74368;DHT22;64991;41.090;-8.118;2022-12-18T17:50:17;20.20;79.80
74368;DHT22;64991;41.090;-8.118;2022-12-18T17:55:21;20.20;80.10
74368;DHT22;64991;41.090;-8.118;2022-12-18T18:00:24;20.20;79.90
74368;DHT22;64991;41.090;-8.118;2022-12-18T18:05:29;20.20;80.00
74368;DHT22;64991;41.090;-8.118;2022-12-18T18:10:34;20.20;79.90
74368;DHT22;64991;41.090;-8.118;2022-12-18T18:15:39;20.10;80.00
74368;DHT22;64991;41.090;-8.118;2022-12-18T18:20:44;20.00;79.90
74368;DHT22;64991;41.090;-8.118;2022-12-18T18:25:48;20.10;80.10
74368;DHT22;64991;41.090;-8.118;2022-12-18T18:30:54;20.00;80.10
74368;DHT22;64991;41.090;-8.118;2022-12-18T18:35:59;20.00;80.30
74368;DHT22;64991;41.090;-8.118;2022-12-18T18:41:03;20.10;80.20
74368;DHT22;64991;41.090;-8.118;2022-12-18T18:46:08;20.00;80.10
74368;DHT22;64991;41.090;-8.118;2022-12-18T18:51:15;20.00;80.30
74368;DHT22;64991;41.090;-8.118;2022-12-18T18:56:22;19.90;80.30
74368;DHT22;64991;41.090;-8.118;2022-12-18T19:01:48;19.90;80.20
74368;DHT22;64991;41.090;-8.118;2022-12-18T19:06:55;20.00;80.20
74368;DHT22;64991;41.090;-8.118;2022-12-18T19:11:58;20.00;80.10
74368;DHT22;64991;41.090;-8.118;2022-12-18T19:17:19;20.00;80.20
74368;DHT22;64991;41.090;-8.118;2022-12-18T19:22:31;19.90;80.00
74368;DHT22;64991;41.090;-8.118;2022-12-18T19:27:35;19.90;80.00
74368;DHT22;64991;41.090;-8.118;2022-12-18T19:32:39;19.90;79.90
74368;DHT22;64991;41.090;-8.118;2022-12-18T19:37:44;19.90;80.20
74368;DHT22;64991;41.090;-8.118;2022-12-18T19:42:48;19.90;80.10
74368;DHT22;64991;41.090;-8.118;2022-12-18T19:47:51;19.90;80.00
74368;DHT22;64991;41.090;-8.118;2022-12-18T19:53:01;19.80;80.20
74368;DHT22;64991;41.090;-8.118;2022-12-18T19:58:07;19.80;79.90
74368;DHT22;64991;41.090;-8.118;2022-12-18T20:03:11;19.80;80.20
74368;DHT22;64991;41.090;-8.118;2022-12-18T20:08:30;19.80;80.20
74368;DHT22;64991;41.090;-8.118;2022-12-18T20:13:34;19.90;80.20
74368;DHT22;64991;41.090;-8.118;2022-12-18T20:18:38;19.80;80.20
74368;DHT22;64991;41.090;-8.118;2022-12-18T20:23:44;19.80;80.10
74368;DHT22;64991;41.090;-8.118;2022-12-18T20:28:47;19.80;80.40
74368;DHT22;64991;41.090;-8.118;2022-12-18T20:33:51;19.70;80.20
74368;DHT22;64991;41.090;-8.118;2022-12-18T20:38:59;19.80;80.30
74368;DHT22;64991;41.090;-8.118;2022-12-18T20:44:06;19.70;80.40
74368;DHT22;64991;41.090;-8.118;2022-12-18T20:49:24;19.80;80.30
74368;DHT22;64991;41.090;-8.118;2022-12-18T20:54:30;19.70;80.30
74368;DHT22;64991;41.090;-8.118;2022-12-18T20:59:33;19.70;80.50
74368;DHT22;64991;41.090;-8.118;2022-12-18T21:04:37;19.70;80.10
74368;DHT22;64991;41.090;-8.118;2022-12-18T21:09:42;19.70;80.20
74368;DHT22;64991;41.090;-8.118;2022-12-18T21:14:45;19.70;80.10
74368;DHT22;64991;41.090;-8.118;2022-12-18T21:19:51;19.70;80.20
74368;DHT22;64991;41.090;-8.118;2022-12-18T21:24:56;19.70;80.30
74368;DHT22;64991;41.090;-8.118;2022-12-18T21:30:00;19.70;79.90
74368;DHT22;64991;41.090;-8.118;2022-12-18T21:35:04;19.70;80.00
74368;DHT22;64991;41.090;-8.118;2022-12-18T21:40:10;19.60;80.30
74368;DHT22;64991;41.090;-8.118;2022-12-18T21:45:14;19.70;80.20
74368;DHT22;64991;41.090;-8.118;2022-12-18T21:50:17;19.60;80.00
74368;DHT22;64991;41.090;-8.118;2022-12-18T21:55:22;19.60;80.20
74368;DHT22;64991;41.090;-8.118;2022-12-18T22:00:26;19.60;80.20
74368;DHT22;64991;41.090;-8.118;2022-12-18T22:05:29;19.60;80.30
74368;DHT22;64991;41.090;-8.118;2022-12-18T22:10:34;19.60;80.30
74368;DHT22;64991;41.090;-8.118;2022-12-18T22:15:39;19.60;80.40
74368;DHT22;64991;41.090;-8.118;2022-12-18T22:20:42;19.60;80.20
74368;DHT22;64991;41.090;-8.118;2022-12-18T22:25:47;19.60;80.00
74368;DHT22;64991;41.090;-8.118;2022-12-18T22:30:51;19.50;80.10
74368;DHT22;64991;41.090;-8.118;2022-12-18T22:36:03;19.60;80.10
74368;DHT22;64991;41.090;-8.118;2022-12-18T22:41:08;19.60;79.80
74368;DHT22;64991;41.090;-8.118;2022-12-18T22:46:13;19.50;80.00
74368;DHT22;64991;41.090;-8.118;2022-12-18T22:51:18;19.60;79.70
74368;DHT22;64991;41.090;-8.118;2022-12-18T22:56:23;19.60;79.80
74368;DHT22;64991;41.090;-8.118;2022-12-18T23:01:27;19.60;79.90
74368;DHT22;64991;41.090;-8.118;2022-12-18T23:06:33;19.60;79.70
74368;DHT22;64991;41.090;-8.118;2022-12-18T23:11:38;19.50;80.00
74368;DHT22;64991;41.090;-8.118;2022-12-18T23:16:41;19.60;79.80
74368;DHT22;64991;41.090;-8.118;2022-12-18T23:21:47;19.60;79.50
74368;DHT22;64991;41.090;-8.118;2022-12-18T23:26:51;19.50;79.80
74368;DHT22;64991;41.090;-8.118;2022-12-18T23:31:55;19.50;79.80
74368;DHT22;64991;41.090;-8.118;2022-12-18T23:36:59;19.50;79.80
74368;DHT22;64991;41.090;-8.118;2022-12-18T23:42:06;19.50;79.50
74368;DHT22;64991;41.090;-8.118;2022-12-18T23:47:10;19.40;79.50
74368;DHT22;64991;41.090;-8.118;2022-12-18T23:52:14;19.50;79.50
74368;DHT22;64991;41.090;-8.118;2022-12-18T23:57:19;19.50;79.30
